MRLL weather

Las Lomas Airport
Siquirres, Limon, Costa Rica

Public forecast

Using degrees Celsius for public forecast. Weather courtesy of forecast.io.

Closest aviation weather report (METAR) to Las Lomas Airport

Report is more than 2 hours old.

Closest report is Tobias Bolanos International Airport, 33.6 nm (62.1 km) WSW. Retrieved 2020/05/26 00:00 UTC (6 hours ago):

MRPV 260000Z VRB01KT 9999 -RA BCFG FEW005 OVC100 21/20 A2999 NOSIG

Closest aviation forecast (TAF) to Las Lomas Airport

Closest forecast is Tobias Bolanos International Airport, 33.6 nm (62.1 km) WSW. Retrieved 2020-05-26 00:42 UTC (5 hours ago):

TAF MRPV 252300Z 2600/2624 12005KT 9999 FEW040 BKN100 TX29/2618Z TN19/2607Z TEMPO 2600/2606 VRB02KT RA BCFG BECMG 2615/2617 29010KT TEMPO 2619/2623 5000 TSRA SCT010CB